Time;durP1;ratioP1;P1;durP2;ratioP2;P2;SDS_P1;SDS_P2;PMS_P1;PMS_P2;Temp;Humidity;BMP_temperature;BMP_pressure;BME280_temperature;BME280_humidity;BME280_pressure;Samples;Min_cycle;Max_cycle;Signal;HPM_P1;HPM_P2
2022/07/28 00:02:17;;;;;;;3.90;1.73;;;12.50;99.90;;;;;;5012539;28;20124;-82
2022/07/28 00:04:43;;;;;;;4.70;1.73;;;12.50;99.90;;;;;;5012487;28;20053;-81
2022/07/28 00:07:09;;;;;;;3.60;1.73;;;12.50;99.90;;;;;;5012559;28;20046;-81
2022/07/28 00:09:35;;;;;;;2.50;1.70;;;12.50;99.90;;;;;;4996464;28;20038;-81
2022/07/28 00:12:00;;;;;;;4.30;1.80;;;12.50;99.90;;;;;;4996142;28;20042;-81
2022/07/28 00:14:26;;;;;;;5.03;1.63;;;12.50;99.90;;;;;;4996050;28;20315;-81
2022/07/28 00:16:52;;;;;;;2.38;1.30;;;12.50;99.90;;;;;;4996384;28;20038;-82
2022/07/28 00:19:19;;;;;;;1.92;1.50;;;12.40;99.90;;;;;;4980085;28;20045;-81
2022/07/28 00:21:44;;;;;;;3.97;1.90;;;12.40;99.90;;;;;;5012644;28;20081;-81
2022/07/28 00:24:10;;;;;;;3.25;1.70;;;12.40;99.90;;;;;;4996272;28;20069;-81
2022/07/28 00:26:36;;;;;;;2.75;1.73;;;12.40;99.90;;;;;;5011704;28;20092;-81
2022/07/28 00:29:03;;;;;;;4.60;2.03;;;12.40;99.90;;;;;;5011915;28;20072;-81
2022/07/28 00:31:29;;;;;;;4.65;2.08;;;12.40;99.90;;;;;;5012333;28;20045;-81
2022/07/28 00:33:55;;;;;;;2.13;1.60;;;12.40;99.90;;;;;;4996207;28;20083;-81
2022/07/28 00:36:20;;;;;;;5.23;1.93;;;12.40;99.90;;;;;;4995740;28;20049;-81
2022/07/28 00:38:46;;;;;;;4.80;1.83;;;12.40;99.90;;;;;;4993769;28;20038;-81
2022/07/28 00:41:12;;;;;;;2.83;1.50;;;12.30;99.90;;;;;;5012140;28;20061;-81
2022/07/28 00:43:47;;;;;;;5.78;1.77;;;12.30;99.90;;;;;;5012117;28;20042;-81
2022/07/28 00:46:14;;;;;;;2.10;1.45;;;12.30;99.90;;;;;;5010016;28;20050;-81
2022/07/28 00:48:47;;;;;;;4.43;1.73;;;12.20;99.90;;;;;;5012191;28;20374;-81
2022/07/28 00:51:15;;;;;;;3.20;2.20;;;12.20;99.90;;;;;;5011630;28;20049;-81
2022/07/28 00:53:41;;;;;;;6.55;2.55;;;12.10;99.90;;;;;;5011704;28;20030;-81
2022/07/28 00:56:07;;;;;;;2.83;2.03;;;12.00;99.90;;;;;;5011633;28;20125;-82
2022/07/28 00:58:34;;;;;;;2.67;1.83;;;12.00;99.90;;;;;;5011805;28;20037;-81
2022/07/28 01:01:00;;;;;;;2.17;1.50;;;11.90;99.90;;;;;;5011819;28;20033;-81
2022/07/28 01:03:27;;;;;;;2.03;1.40;;;11.90;99.90;;;;;;4995421;28;20061;-81
2022/07/28 01:06:11;;;;;;;2.95;1.70;;;11.90;99.90;;;;;;4995112;28;20124;-81
2022/07/28 01:09:00;;;;;;;3.85;1.63;;;11.90;99.90;;;;;;5011658;28;20049;-81
2022/07/28 01:11:31;;;;;;;2.17;1.60;;;11.90;99.90;;;;;;5011155;28;20042;-81
2022/07/28 01:14:07;;;;;;;2.20;1.45;;;11.90;99.90;;;;;;4995026;28;20192;-81
2022/07/28 01:16:37;;;;;;;2.28;1.58;;;11.90;99.90;;;;;;5011775;28;20050;-81
2022/07/28 01:19:35;;;;;;;3.08;1.50;;;11.90;99.90;;;;;;5009624;28;20119;-81
2022/07/28 01:22:03;;;;;;;3.40;1.60;;;11.90;99.90;;;;;;5000803;28;20041;-80
2022/07/28 01:24:39;;;;;;;2.35;1.60;;;11.90;99.90;;;;;;5019489;28;20045;-81
2022/07/28 01:27:15;;;;;;;3.60;1.50;;;11.80;99.90;;;;;;4993665;28;20026;-81
2022/07/28 01:30:00;;;;;;;1.90;1.48;;;11.80;99.90;;;;;;5009425;28;20045;-81
2022/07/28 01:32:31;;;;;;;3.05;1.30;;;11.70;99.90;;;;;;5009381;28;20102;-81
2022/07/28 01:35:06;;;;;;;1.73;0.93;;;11.70;99.90;;;;;;5011247;28;20045;-81
2022/07/28 01:37:38;;;;;;;2.13;1.40;;;11.70;99.90;;;;;;5010981;28;20117;-81
2022/07/28 01:40:07;;;;;;;2.65;1.73;;;11.70;99.90;;;;;;4993040;28;20509;-81
2022/07/28 01:42:39;;;;;;;4.45;1.50;;;11.70;99.90;;;;;;5011094;28;20120;-81
2022/07/28 01:45:07;;;;;;;2.17;1.50;;;11.70;99.90;;;;;;5011359;28;20113;-81
2022/07/28 01:47:34;;;;;;;2.38;1.50;;;11.70;99.90;;;;;;5011301;28;20044;-81
2022/07/28 01:50:04;;;;;;;2.10;1.65;;;11.70;99.90;;;;;;4994825;28;20081;-81
2022/07/28 01:52:31;;;;;;;2.92;1.45;;;11.60;99.90;;;;;;5010741;28;20103;-81
2022/07/28 01:54:59;;;;;;;2.78;1.48;;;11.60;99.90;;;;;;4994727;28;20042;-81
2022/07/28 01:57:28;;;;;;;3.38;1.80;;;11.60;99.90;;;;;;5010415;28;20099;-81
2022/07/28 01:59:56;;;;;;;3.08;1.83;;;11.50;99.90;;;;;;5011118;28;20100;-81
2022/07/28 02:02:23;;;;;;;3.25;1.85;;;11.40;99.90;;;;;;5010658;28;20124;-81
2022/07/28 02:04:51;;;;;;;3.58;1.90;;;11.40;99.90;;;;;;5010318;28;20065;-82
2022/07/28 02:07:19;;;;;;;3.53;1.70;;;11.30;99.90;;;;;;4994315;28;20470;-81
2022/07/28 02:09:46;;;;;;;2.28;1.55;;;11.30;99.90;;;;;;4978952;28;20042;-81
2022/07/28 02:12:15;;;;;;;1.95;1.67;;;11.30;99.90;;;;;;5010722;28;20042;-81
2022/07/28 02:14:45;;;;;;;3.30;1.90;;;11.20;99.90;;;;;;4994194;28;20125;-81
2022/07/28 02:17:19;;;;;;;4.97;1.80;;;11.20;99.90;;;;;;5010596;28;20046;-81
2022/07/28 02:19:47;;;;;;;4.60;1.70;;;11.20;99.90;;;;;;5008750;28;20088;-81
2022/07/28 02:22:15;;;;;;;3.65;1.88;;;11.20;99.90;;;;;;5010165;28;20046;-81
2022/07/28 02:24:43;;;;;;;5.60;1.98;;;11.20;99.90;;;;;;5010505;28;20065;-81
2022/07/28 02:27:34;;;;;;;2.85;1.90;;;11.30;99.90;;;;;;4994705;28;20065;-81
2022/07/28 02:30:08;;;;;;;2.47;1.75;;;11.30;99.90;;;;;;5009989;28;20037;-79
2022/07/28 02:32:41;;;;;;;4.63;2.33;;;11.30;99.90;;;;;;5009561;28;20037;-79
2022/07/28 02:35:18;;;;;;;4.53;2.10;;;11.30;99.90;;;;;;5010006;28;20038;-79
2022/07/28 02:37:48;;;;;;;3.93;2.20;;;11.30;99.90;;;;;;5007873;28;20053;-79
2022/07/28 02:40:15;;;;;;;4.38;1.92;;;11.30;99.90;;;;;;4993603;28;20289;-80
2022/07/28 02:42:45;;;;;;;2.22;1.70;;;11.20;99.90;;;;;;4993149;28;20124;-80
2022/07/28 02:45:14;;;;;;;2.75;1.98;;;11.20;99.90;;;;;;4993886;28;20052;-80
2022/07/28 02:47:47;;;;;;;3.58;2.10;;;11.10;99.90;;;;;;5009655;28;20042;-80
2022/07/28 02:50:15;;;;;;;5.82;2.38;;;11.00;99.90;;;;;;5010927;28;20038;-80
2022/07/28 02:52:42;;;;;;;3.00;2.00;;;11.00;99.90;;;;;;5004590;28;20046;-80
2022/07/28 02:55:12;;;;;;;3.17;2.05;;;11.00;99.90;;;;;;4997454;28;20050;-79
2022/07/28 02:57:40;;;;;;;4.95;1.55;;;11.00;99.90;;;;;;5013890;28;21012;-80
2022/07/28 03:00:07;;;;;;;2.45;1.98;;;11.00;99.90;;;;;;4997640;28;20390;-80
2022/07/28 03:02:35;;;;;;;3.10;1.60;;;11.10;99.90;;;;;;5013401;28;20073;-77
2022/07/28 03:05:02;;;;;;;2.55;1.80;;;11.10;99.90;;;;;;4997166;28;20497;-80
2022/07/28 03:07:30;;;;;;;4.03;2.17;;;11.10;99.90;;;;;;5013648;28;20399;-79
2022/07/28 03:09:58;;;;;;;3.63;2.00;;;11.20;99.90;;;;;;5013681;28;20061;-79
2022/07/28 03:12:25;;;;;;;3.72;1.83;;;11.20;99.90;;;;;;4996924;28;20041;-80
2022/07/28 03:14:51;;;;;;;9.25;2.30;;;11.30;99.90;;;;;;5013459;28;20045;-80
2022/07/28 03:17:18;;;;;;;3.72;2.03;;;11.30;99.90;;;;;;5013410;28;20533;-79
2022/07/28 03:19:44;;;;;;;3.17;1.70;;;11.40;99.90;;;;;;4996861;28;20490;-79
2022/07/28 03:22:10;;;;;;;4.47;2.08;;;11.40;99.90;;;;;;5013404;28;20046;-79
2022/07/28 03:24:39;;;;;;;3.40;1.83;;;11.40;99.90;;;;;;4996576;28;20041;-79
2022/07/28 03:27:20;;;;;;;2.00;1.67;;;11.40;99.90;;;;;;5013103;28;20075;-79
2022/07/28 03:29:50;;;;;;;3.00;1.52;;;11.40;99.90;;;;;;5013125;28;20042;-79
2022/07/28 03:32:18;;;;;;;3.15;1.58;;;11.40;99.90;;;;;;5013437;28;20041;-79
2022/07/28 03:34:44;;;;;;;2.47;1.75;;;11.50;99.90;;;;;;5010249;28;20048;-79
2022/07/28 03:37:13;;;;;;;2.93;2.10;;;11.40;99.90;;;;;;4997004;28;20482;-79
2022/07/28 03:39:46;;;;;;;3.85;1.83;;;11.50;99.90;;;;;;5012854;28;20320;-79
2022/07/28 03:42:14;;;;;;;4.28;2.00;;;11.50;99.90;;;;;;5013205;28;20041;-79
2022/07/28 03:44:41;;;;;;;2.95;1.98;;;11.60;99.90;;;;;;5012743;28;20371;-79
2022/07/28 03:47:06;;;;;;;2.83;1.83;;;11.60;99.90;;;;;;5012865;28;20056;-79
2022/07/28 03:49:32;;;;;;;2.00;1.70;;;11.70;99.90;;;;;;5013046;28;20033;-79
2022/07/28 03:51:58;;;;;;;6.13;2.00;;;11.80;99.90;;;;;;4997093;28;20120;-79
2022/07/28 03:54:24;;;;;;;3.75;2.00;;;11.80;99.90;;;;;;5012684;28;20406;-80
2022/07/28 03:56:49;;;;;;;4.10;2.15;;;11.90;99.90;;;;;;5012492;28;20038;-80
2022/07/28 03:59:16;;;;;;;4.67;2.50;;;11.90;99.90;;;;;;4996685;28;20382;-80
2022/07/28 04:01:43;;;;;;;4.72;2.38;;;12.00;99.90;;;;;;5011954;28;20331;-79
2022/07/28 04:04:09;;;;;;;4.15;2.42;;;12.10;99.90;;;;;;5012427;28;20120;-78
2022/07/28 04:06:35;;;;;;;3.70;1.92;;;12.20;99.90;;;;;;5012624;28;20077;-78
2022/07/28 04:09:01;;;;;;;4.53;1.93;;;12.20;99.90;;;;;;5012312;28;20123;-78
2022/07/28 04:11:27;;;;;;;4.32;1.90;;;12.20;99.90;;;;;;4996764;28;20509;-79
2022/07/28 04:13:55;;;;;;;2.65;2.28;;;12.20;99.90;;;;;;5012670;28;20567;-77
2022/07/28 04:16:21;;;;;;;3.78;2.20;;;12.30;99.90;;;;;;5012582;28;20085;-79
2022/07/28 04:18:46;;;;;;;4.85;2.70;;;12.30;99.90;;;;;;5011764;28;20065;-81
2022/07/28 04:21:13;;;;;;;5.17;2.47;;;12.30;99.90;;;;;;5012399;28;20117;-81
2022/07/28 04:23:38;;;;;;;3.88;2.50;;;12.40;99.90;;;;;;5012100;28;20312;-81
2022/07/28 04:26:04;;;;;;;3.67;2.45;;;12.40;99.90;;;;;;4996007;28;20065;-81
2022/07/28 04:28:30;;;;;;;3.40;2.30;;;12.50;99.90;;;;;;4995702;28;20513;-81
2022/07/28 04:30:56;;;;;;;3.08;2.30;;;12.60;99.90;;;;;;4996609;28;20336;-80
2022/07/28 04:33:21;;;;;;;3.97;2.05;;;12.60;99.90;;;;;;4996104;28;20050;-82
2022/07/28 04:35:47;;;;;;;2.20;1.80;;;12.50;99.90;;;;;;5011794;28;20509;-80
2022/07/28 04:38:13;;;;;;;4.13;2.10;;;12.40;99.90;;;;;;4995993;28;20069;-81
2022/07/28 04:40:41;;;;;;;;;;;12.40;99.90;;;;;;5012531;28;21038;-81
2022/07/28 04:43:07;;;;;;;7.72;2.17;;;12.30;99.90;;;;;;5012089;28;19928;-80
2022/07/28 04:45:33;;;;;;;2.97;2.45;;;12.20;99.90;;;;;;5011634;28;20045;-81
2022/07/28 04:47:58;;;;;;;5.22;2.95;;;12.10;99.90;;;;;;5012188;28;20091;-82
2022/07/28 04:50:24;;;;;;;4.50;2.33;;;12.10;99.90;;;;;;5012584;28;20109;-80
2022/07/28 04:52:50;;;;;;;4.65;2.25;;;12.10;99.90;;;;;;5011867;28;20288;-81
2022/07/28 04:55:17;;;;;;;6.97;2.43;;;12.10;99.90;;;;;;5011347;28;20371;-81
2022/07/28 04:57:43;;;;;;;4.32;2.60;;;12.00;99.90;;;;;;4998076;28;20041;-80
2022/07/28 05:00:13;;;;;;;4.03;2.78;;;12.10;99.90;;;;;;4995371;28;20048;-81
2022/07/28 05:02:43;;;;;;;5.10;2.72;;;12.10;99.90;;;;;;5011906;28;20601;-81
2022/07/28 05:05:10;;;;;;;4.38;2.88;;;12.10;99.90;;;;;;4995581;28;20128;-81
2022/07/28 05:07:37;;;;;;;3.83;2.60;;;12.10;99.90;;;;;;5011557;28;20121;-81
2022/07/28 05:10:04;;;;;;;6.05;2.45;;;12.10;99.90;;;;;;5012139;28;20038;-81
2022/07/28 05:12:30;;;;;;;5.65;2.67;;;12.20;99.90;;;;;;4995755;28;20046;-81
2022/07/28 05:14:56;;;;;;;5.30;2.78;;;12.20;99.90;;;;;;5011561;28;20064;-81
2022/07/28 05:17:21;;;;;;;5.17;2.90;;;12.30;99.90;;;;;;5011769;28;20452;-81
2022/07/28 05:19:47;;;;;;;3.50;2.73;;;12.30;99.90;;;;;;4995252;28;20296;-80
2022/07/28 05:22:13;;;;;;;5.17;2.67;;;12.40;99.90;;;;;;5011971;28;20812;-80
2022/07/28 05:24:38;;;;;;;6.00;2.40;;;12.40;99.90;;;;;;5011859;28;20285;-81
2022/07/28 05:27:04;;;;;;;3.70;2.50;;;12.40;99.90;;;;;;5011416;28;20041;-80
2022/07/28 05:29:30;;;;;;;4.13;2.57;;;12.40;99.90;;;;;;5011708;28;20284;-81
2022/07/28 05:31:55;;;;;;;3.60;2.40;;;12.40;99.90;;;;;;5011461;28;20052;-81
2022/07/28 05:34:21;;;;;;;4.17;2.70;;;12.50;99.90;;;;;;5011348;28;20648;-81
2022/07/28 05:36:47;;;;;;;3.40;2.58;;;12.50;99.90;;;;;;4994288;28;20117;-81
2022/07/28 05:39:14;;;;;;;3.70;2.60;;;12.60;99.90;;;;;;4979187;28;20037;-80
2022/07/28 05:41:39;;;;;;;4.82;2.78;;;12.60;99.90;;;;;;5010730;28;20309;-80
2022/07/28 05:44:05;;;;;;;4.00;2.90;;;12.70;99.90;;;;;;4978727;28;20116;-80
2022/07/28 05:46:31;;;;;;;4.72;2.55;;;12.80;99.90;;;;;;5011241;28;20102;-80
2022/07/28 05:48:57;;;;;;;4.53;2.80;;;12.80;99.90;;;;;;5008700;28;20056;-80
2022/07/28 05:51:23;;;;;;;3.83;2.35;;;12.90;99.90;;;;;;4978890;28;20026;-80
2022/07/28 05:53:49;;;;;;;3.92;2.33;;;13.00;99.90;;;;;;4994591;28;20116;-80
2022/07/28 05:56:14;;;;;;;4.43;2.50;;;13.10;99.90;;;;;;4978693;28;20038;-80
2022/07/28 05:58:40;;;;;;;4.68;2.83;;;13.30;99.90;;;;;;4994267;28;20073;-80
2022/07/28 06:01:06;;;;;;;5.63;2.63;;;13.40;99.90;;;;;;5010912;28;20041;-81
2022/07/28 06:03:33;;;;;;;5.25;2.70;;;13.50;99.90;;;;;;4994414;28;20125;-80
2022/07/28 06:05:59;;;;;;;5.15;2.97;;;13.60;99.90;;;;;;4994026;28;20112;-82
2022/07/28 06:08:25;;;;;;;5.80;3.03;;;13.60;99.90;;;;;;5010659;28;20061;-80
2022/07/28 06:10:58;;;;;;;5.05;2.72;;;13.70;99.90;;;;;;5010287;28;20449;-80
2022/07/28 06:13:24;;;;;;;4.25;2.40;;;13.70;99.90;;;;;;5011103;28;20472;-80
2022/07/28 06:15:51;;;;;;;3.33;2.53;;;13.80;99.90;;;;;;5010292;28;20042;-81
2022/07/28 06:18:18;;;;;;;4.78;2.60;;;13.90;99.90;;;;;;5010891;28;20045;-81
2022/07/28 06:20:45;;;;;;;5.20;2.60;;;14.00;99.90;;;;;;5010402;28;20052;-81
2022/07/28 06:23:11;;;;;;;4.40;2.42;;;14.10;99.90;;;;;;5010661;28;20045;-81
2022/07/28 06:25:37;;;;;;;5.32;2.28;;;14.20;99.90;;;;;;4994060;28;20034;-81
2022/07/28 06:28:03;;;;;;;3.58;2.10;;;14.20;99.90;;;;;;4993982;28;20088;-81
2022/07/28 06:30:30;;;;;;;4.05;2.28;;;14.30;99.90;;;;;;5010814;28;20041;-81
2022/07/28 06:32:56;;;;;;;4.18;2.20;;;14.40;99.90;;;;;;5010675;28;20038;-81
2022/07/28 06:35:22;;;;;;;5.60;2.33;;;14.50;99.90;;;;;;5010533;28;20096;-81
2022/07/28 06:37:49;;;;;;;3.60;2.20;;;14.60;99.90;;;;;;5010261;28;20041;-81
2022/07/28 06:40:16;;;;;;;3.75;1.83;;;14.70;99.90;;;;;;5008572;28;20048;-81
2022/07/28 06:42:44;;;;;;;3.83;1.83;;;14.70;99.90;;;;;;5009760;28;20048;-80
2022/07/28 06:45:11;;;;;;;4.25;1.52;;;14.80;99.90;;;;;;5010454;28;20104;-80
2022/07/28 06:47:37;;;;;;;3.97;1.40;;;14.90;99.90;;;;;;4994233;28;20038;-80
2022/07/28 06:50:04;;;;;;;4.50;1.60;;;15.00;99.90;;;;;;5010102;28;20095;-80
2022/07/28 06:52:30;;;;;;;3.80;1.58;;;15.00;99.90;;;;;;4994235;28;20091;-81
2022/07/28 06:54:56;;;;;;;3.17;1.50;;;15.10;99.90;;;;;;4977550;28;20041;-81
2022/07/28 06:57:22;;;;;;;2.65;1.38;;;15.10;99.90;;;;;;5010369;28;20528;-81
2022/07/28 06:59:48;;;;;;;3.03;1.33;;;15.10;99.90;;;;;;5010041;28;20621;-80
2022/07/28 07:02:15;;;;;;;3.75;1.38;;;15.10;99.90;;;;;;5010184;28;20128;-80
2022/07/28 07:04:41;;;;;;;3.10;1.25;;;15.20;99.90;;;;;;5010300;28;20124;-81
2022/07/28 07:07:07;;;;;;;2.40;1.20;;;15.10;99.90;;;;;;5010373;28;20045;-81
2022/07/28 07:09:33;;;;;;;3.10;1.08;;;15.20;99.90;;;;;;4994081;28;20513;-81
2022/07/28 07:11:59;;;;;;;5.47;1.15;;;15.20;99.90;;;;;;5010184;28;20034;-81
2022/07/28 07:14:25;;;;;;;3.78;1.35;;;15.30;99.90;;;;;;5010144;28;20057;-81
2022/07/28 07:16:50;;;;;;;1.83;0.98;;;15.30;99.90;;;;;;4993403;28;20401;-80
2022/07/28 07:19:20;;;;;;;3.25;1.10;;;15.30;99.90;;;;;;4994309;28;20081;-80
2022/07/28 07:21:46;;;;;;;;;;;15.30;99.90;;;;;;5010066;28;20050;-81
2022/07/28 07:24:12;;;;;;;3.47;1.25;;;15.30;99.90;;;;;;4993918;28;19924;-81
2022/07/28 07:26:38;;;;;;;4.20;1.00;;;15.30;99.90;;;;;;5010397;28;20475;-81
2022/07/28 07:29:05;;;;;;;3.05;1.30;;;15.20;99.90;;;;;;5009626;28;20033;-81
2022/07/28 07:31:32;;;;;;;4.38;1.42;;;15.20;99.90;;;;;;5008023;28;20487;-81
2022/07/28 07:33:58;;;;;;;3.30;1.20;;;15.10;99.90;;;;;;5010044;28;20491;-79
2022/07/28 07:36:23;;;;;;;5.70;1.30;;;15.10;99.90;;;;;;4994829;28;20068;-81
2022/07/28 07:38:49;;;;;;;3.13;1.43;;;15.10;99.90;;;;;;5013398;28;20038;-81
2022/07/28 07:41:16;;;;;;;6.00;1.45;;;15.10;99.90;;;;;;5013859;28;20320;-81
2022/07/28 07:43:42;;;;;;;2.90;1.10;;;15.00;99.90;;;;;;5013963;28;20057;-81
2022/07/28 07:46:08;;;;;;;3.40;1.17;;;15.00;99.90;;;;;;5001959;28;20046;-81
2022/07/28 07:48:33;;;;;;;2.65;1.15;;;15.00;99.90;;;;;;4996949;28;20046;-81
2022/07/28 07:50:59;;;;;;;3.85;1.63;;;15.00;99.90;;;;;;5012914;28;20532;-81
2022/07/28 07:53:24;;;;;;;4.47;2.03;;;15.00;99.90;;;;;;5013422;28;20417;-80
2022/07/28 07:55:54;;;;;;;8.10;2.33;;;15.10;99.90;;;;;;5012857;28;20068;-80
2022/07/28 07:58:20;;;;;;;5.07;2.83;;;15.20;99.90;;;;;;5013223;28;20085;-81
2022/07/28 08:00:46;;;;;;;6.55;2.85;;;15.30;99.90;;;;;;5012884;28;20139;-80
2022/07/28 08:03:13;;;;;;;6.82;2.70;;;15.30;99.90;;;;;;4996449;28;20493;-81
2022/07/28 08:05:39;;;;;;;7.30;2.50;;;15.40;99.90;;;;;;5012676;28;20046;-81
2022/07/28 08:08:04;;;;;;;5.03;2.00;;;15.40;99.90;;;;;;5012845;28;20044;-80
2022/07/28 08:10:30;;;;;;;6.97;2.35;;;15.50;99.90;;;;;;4996660;28;20045;-81
2022/07/28 08:12:56;;;;;;;7.15;2.67;;;15.40;99.90;;;;;;5012497;28;20077;-82
2022/07/28 08:15:21;;;;;;;4.50;2.55;;;15.50;99.90;;;;;;4980424;28;20465;-79
2022/07/28 08:17:47;;;;;;;7.80;2.40;;;15.50;99.90;;;;;;5012674;28;20509;-80
2022/07/28 08:20:13;;;;;;;4.93;2.30;;;15.50;99.90;;;;;;4996267;28;20045;-81
2022/07/28 08:22:57;;;;;;;2.97;1.73;;;15.60;99.90;;;;;;4996302;28;20045;-81
2022/07/28 08:25:23;;;;;;;4.55;1.60;;;15.70;99.90;;;;;;5028637;28;20049;-80
2022/07/28 08:27:49;;;;;;;;;;;15.80;99.90;;;;;;5013029;28;20120;-80
2022/07/28 08:30:18;;;;;;;3.90;1.58;;;15.90;99.90;;;;;;5012222;28;19922;-80
2022/07/28 08:32:44;;;;;;;3.80;1.70;;;16.00;99.90;;;;;;5010262;28;20042;-80
2022/07/28 08:35:10;;;;;;;4.55;1.52;;;16.10;99.90;;;;;;4996018;28;20100;-80
2022/07/28 08:37:38;;;;;;;3.85;1.00;;;16.20;99.90;;;;;;4995903;28;20066;-80
2022/07/28 08:40:07;;;;;;;4.82;1.00;;;16.40;99.90;;;;;;5011928;28;20050;-81
2022/07/28 08:42:49;;;;;;;2.95;0.93;;;16.50;99.90;;;;;;5012396;28;20386;-81
2022/07/28 08:45:17;;;;;;;2.85;0.93;;;16.60;99.90;;;;;;5011569;28;20145;-81
2022/07/28 08:47:44;;;;;;;2.95;1.05;;;16.70;99.90;;;;;;5011669;28;20037;-81
2022/07/28 08:50:12;;;;;;;1.73;0.63;;;16.80;99.90;;;;;;4995642;28;20483;-81
2022/07/28 08:52:39;;;;;;;1.65;0.63;;;17.00;99.90;;;;;;5012085;28;20076;-81
2022/07/28 08:55:07;;;;;;;2.45;0.57;;;17.10;99.90;;;;;;4995472;28;20050;-81
2022/07/28 08:57:40;;;;;;;3.10;0.70;;;17.10;99.90;;;;;;5012567;28;20052;-81
2022/07/28 09:00:09;;;;;;;3.30;0.80;;;17.20;99.90;;;;;;5010750;28;20045;-80
2022/07/28 09:02:42;;;;;;;4.25;0.90;;;17.30;99.90;;;;;;5011704;28;20058;-80
2022/07/28 09:05:09;;;;;;;2.38;0.77;;;17.40;99.90;;;;;;5016454;28;20112;-81
2022/07/28 09:07:38;;;;;;;0.98;0.52;;;17.60;99.90;;;;;;5011682;28;20037;-80
2022/07/28 09:10:08;;;;;;;2.40;0.57;;;17.70;99.90;;;;;;5011747;28;20044;-81
2022/07/28 09:12:34;;;;;;;1.38;0.52;;;17.80;99.90;;;;;;5009555;28;20124;-81
2022/07/28 09:15:01;;;;;;;;;;;18.00;99.90;;;;;;5011870;28;20055;-81
2022/07/28 09:17:27;;;;;;;1.58;0.60;;;18.10;99.90;;;;;;5011747;28;19917;-81
2022/07/28 09:19:52;;;;;;;3.13;0.80;;;18.20;99.90;;;;;;4995663;28;20049;-81
2022/07/28 09:22:18;;;;;;;1.73;0.40;;;18.50;99.90;;;;;;5011513;28;20042;-80
2022/07/28 09:24:44;;;;;;;1.17;0.50;;;18.60;99.90;;;;;;5012060;28;20124;-80
2022/07/28 09:27:11;;;;;;;3.78;0.55;;;18.80;99.90;;;;;;5011212;28;20046;-80
2022/07/28 09:29:40;;;;;;;1.33;0.40;;;18.90;99.90;;;;;;4995392;28;20084;-80
2022/07/28 09:32:07;;;;;;;2.42;0.85;;;19.00;99.90;;;;;;4994524;28;20037;-80
2022/07/28 09:34:47;;;;;;;3.45;0.40;;;19.20;99.90;;;;;;5013893;28;20521;-80
2022/07/28 09:37:21;;;;;;;2.15;0.55;;;19.50;99.90;;;;;;5009457;28;20562;-80
2022/07/28 09:39:48;;;;;;;2.35;0.50;;;19.70;99.90;;;;;;5011300;28;20053;-81
2022/07/28 09:42:17;;;;;;;3.00;0.60;;;19.70;99.90;;;;;;5010965;28;20058;-81
2022/07/28 09:44:43;;;;;;;2.40;0.52;;;19.90;99.90;;;;;;4994756;28;20061;-80
2022/07/28 09:47:26;;;;;;;1.50;0.57;;;20.00;99.90;;;;;;5010733;28;20430;-81
2022/07/28 09:49:52;;;;;;;1.35;0.50;;;20.00;99.90;;;;;;5009621;28;20045;-81
2022/07/28 09:52:31;;;;;;;3.22;0.50;;;20.20;99.90;;;;;;5010924;28;20077;-81
2022/07/28 09:55:09;;;;;;;3.08;0.65;;;20.40;99.90;;;;;;5010257;28;20034;-80
2022/07/28 09:57:37;;;;;;;2.35;0.55;;;20.70;99.90;;;;;;5010006;28;20063;-80
2022/07/28 10:00:09;;;;;;;2.10;0.50;;;21.20;99.90;;;;;;5007448;28;20040;-80
2022/07/28 10:02:36;;;;;;;1.80;0.60;;;21.50;99.90;;;;;;4993534;28;20192;-81
2022/07/28 10:05:01;;;;;;;2.25;0.77;;;21.80;99.60;;;;;;4993358;28;20224;-81
2022/07/28 10:07:28;;;;;;;;;;;22.00;99.90;;;;;;4994289;28;20661;-81
2022/07/28 10:09:58;;;;;;;2.10;0.50;;;22.20;99.40;;;;;;5010210;28;19921;-81
2022/07/28 10:12:26;;;;;;;2.33;0.60;;;22.50;99.30;;;;;;4992062;28;20041;-81
2022/07/28 10:14:54;;;;;;;3.97;0.57;;;22.30;97.70;;;;;;5010914;28;20117;-81
2022/07/28 10:17:31;;;;;;;2.92;0.60;;;22.60;99.10;;;;;;4994702;28;20572;-81
2022/07/28 10:20:04;;;;;;;1.70;0.60;;;22.90;97.80;;;;;;4995202;28;20107;-81
2022/07/28 10:22:33;;;;;;;2.25;0.50;;;23.40;97.80;;;;;;4994378;28;20563;-81
2022/07/28 10:25:11;;;;;;;1.58;0.50;;;23.60;97.70;;;;;;5008740;28;20042;-81
2022/07/28 10:27:39;;;;;;;2.42;0.43;;;23.20;97.50;;;;;;4992402;28;20041;-81
2022/07/28 10:30:06;;;;;;;2.35;0.50;;;23.00;97.00;;;;;;4993890;28;20041;-81
2022/07/28 10:32:34;;;;;;;;;;;22.50;96.60;;;;;;4994896;28;20382;-81
2022/07/28 10:35:04;;;;;;;3.15;0.52;;;22.30;97.10;;;;;;5026826;28;19924;-81
2022/07/28 10:37:33;;;;;;;2.10;0.50;;;22.10;97.90;;;;;;5010827;28;20053;-81
2022/07/28 10:40:03;;;;;;;3.47;0.50;;;21.90;98.20;;;;;;5010644;28;20042;-81
2022/07/28 10:42:30;;;;;;;1.90;0.40;;;22.00;98.10;;;;;;5010457;28;20163;-80
2022/07/28 10:44:57;;;;;;;1.88;0.45;;;22.10;98.10;;;;;;5010659;28;20038;-81
2022/07/28 10:47:23;;;;;;;0.80;0.40;;;22.20;98.20;;;;;;5010228;28;20046;-80
2022/07/28 10:49:49;;;;;;;1.55;0.35;;;22.40;97.40;;;;;;5010335;28;20053;-80
2022/07/28 10:52:17;;;;;;;;;;;22.30;96.80;;;;;;5013744;28;20414;-80
2022/07/28 10:55:06;;;;;;;2.58;0.30;;;22.50;97.10;;;;;;5016947;28;19960;-80
2022/07/28 10:57:36;;;;;;;0.70;0.40;;;22.40;96.30;;;;;;5010268;28;20045;-80
2022/07/28 11:00:05;;;;;;;2.70;0.65;;;22.60;96.40;;;;;;4994067;28;20048;-80
2022/07/28 11:02:46;;;;;;;4.13;0.80;;;22.60;97.30;;;;;;5008324;28;20049;-80
2022/07/28 11:05:39;;;;;;;2.65;0.52;;;23.00;96.40;;;;;;5008201;28;20065;-80
2022/07/28 11:08:27;;;;;;;1.20;0.38;;;22.90;95.90;;;;;;5007821;28;20417;-80
2022/07/28 11:10:54;;;;;;;3.55;0.43;;;22.80;95.70;;;;;;5025978;28;20034;-80
2022/07/28 11:13:30;;;;;;;2.40;0.50;;;22.40;96.10;;;;;;5013667;28;20045;-81
2022/07/28 11:16:17;;;;;;;3.13;0.47;;;22.70;96.50;;;;;;4997579;28;20228;-81
2022/07/28 11:19:02;;;;;;;1.40;0.40;;;22.90;96.80;;;;;;5012466;28;20041;-81
2022/07/28 11:21:28;;;;;;;2.97;0.50;;;22.90;95.80;;;;;;4997357;28;20045;-80
2022/07/28 11:23:54;;;;;;;;;;;23.20;96.30;;;;;;5014293;28;20045;-80
2022/07/28 11:26:21;;;;;;;1.38;0.40;;;23.10;95.90;;;;;;5013281;28;19917;-80
2022/07/28 11:28:59;;;;;;;3.28;0.60;;;22.90;95.50;;;;;;5017052;28;20037;-79
2022/07/28 11:31:43;;;;;;;1.10;0.32;;;22.90;96.30;;;;;;4996841;28;20042;-80
2022/07/28 11:34:17;;;;;;;1.15;0.40;;;22.80;96.40;;;;;;5011301;28;20076;-80
2022/07/28 11:37:06;;;;;;;1.27;0.47;;;22.70;97.00;;;;;;4997463;28;20497;-81
2022/07/28 11:39:34;;;;;;;1.10;0.38;;;22.30;96.50;;;;;;5012457;28;20042;-80
2022/07/28 11:42:26;;;;;;;1.88;0.50;;;22.20;97.10;;;;;;5013266;28;20095;-81
2022/07/28 11:45:16;;;;;;;1.55;0.47;;;22.30;96.90;;;;;;5029526;28;20077;-81
2022/07/28 11:47:41;;;;;;;2.42;0.30;;;22.10;96.80;;;;;;4995529;28;20034;-81
2022/07/28 11:50:15;;;;;;;2.38;0.60;;;22.30;97.60;;;;;;5013177;28;20387;-81
2022/07/28 11:52:55;;;;;;;1.88;0.60;;;22.30;97.20;;;;;;5012346;28;20490;-81
2022/07/28 11:55:21;;;;;;;4.28;0.43;;;22.30;97.10;;;;;;4993334;28;20042;-81
2022/07/28 11:57:47;;;;;;;2.85;0.40;;;22.10;96.80;;;;;;5013706;28;20038;-81
2022/07/28 12:00:21;;;;;;;1.27;0.40;;;21.90;97.30;;;;;;5015767;28;20069;-81
2022/07/28 12:02:47;;;;;;;1.83;0.40;;;21.70;96.90;;;;;;5013088;28;20430;-80
2022/07/28 12:05:14;;;;;;;1.55;0.40;;;21.80;97.00;;;;;;4996447;28;20058;-79
2022/07/28 12:07:43;;;;;;;4.65;0.60;;;21.70;96.20;;;;;;5013060;28;20497;-79
2022/07/28 12:10:25;;;;;;;1.63;0.40;;;21.70;96.40;;;;;;4996750;28;20375;-81
2022/07/28 12:12:52;;;;;;;1.55;0.45;;;21.90;95.60;;;;;;5010878;28;20038;-80
2022/07/28 12:15:19;;;;;;;1.83;0.60;;;21.90;96.30;;;;;;5012762;28;20594;-80
2022/07/28 12:17:47;;;;;;;4.43;0.50;;;22.00;96.10;;;;;;4996573;28;20067;-81
2022/07/28 12:20:16;;;;;;;1.17;0.30;;;22.20;96.00;;;;;;5012307;28;20088;-81
2022/07/28 12:23:14;;;;;;;1.77;0.55;;;22.30;96.10;;;;;;5011918;28;20033;-79
2022/07/28 12:25:45;;;;;;;1.35;0.30;;;22.40;94.70;;;;;;4949557;28;20057;-80
2022/07/28 12:28:21;;;;;;;1.85;0.50;;;22.50;95.20;;;;;;4996706;28;20033;-80
2022/07/28 12:30:50;;;;;;;1.90;0.40;;;22.50;94.90;;;;;;5010905;28;20045;-80
2022/07/28 12:33:25;;;;;;;2.78;0.35;;;22.40;94.40;;;;;;4995707;28;20049;-80
2022/07/28 12:35:56;;;;;;;2.65;0.40;;;22.80;94.20;;;;;;5000987;28;20060;-80
2022/07/28 12:38:24;;;;;;;0.68;0.35;;;23.10;94.30;;;;;;5010329;28;20117;-80
2022/07/28 12:40:51;;;;;;;1.95;0.20;;;23.20;94.10;;;;;;5012261;28;20042;-80
2022/07/28 12:43:28;;;;;;;2.15;0.45;;;23.20;94.20;;;;;;5011801;28;20056;-80
2022/07/28 12:45:54;;;;;;;1.27;0.40;;;23.10;93.90;;;;;;5012282;28;20052;-80
2022/07/28 12:48:20;;;;;;;0.88;0.30;;;23.30;94.40;;;;;;5011847;28;20038;-80
2022/07/28 12:50:46;;;;;;;;;;;23.30;94.40;;;;;;5017191;28;20593;-80
2022/07/28 12:53:13;;;;;;;2.35;0.40;;;23.20;94.00;;;;;;5012047;28;19921;-80
2022/07/28 12:55:44;;;;;;;2.58;0.50;;;22.80;94.20;;;;;;4995796;28;20042;-80
2022/07/28 12:58:24;;;;;;;3.22;0.50;;;22.80;94.90;;;;;;5012053;28;20049;-80